createdAt,value
2024-01-20T00:01:49.543Z,88
2024-01-20T00:03:49.908Z,88
2024-01-20T00:05:48.992Z,88
2024-01-20T00:07:49.431Z,86
2024-01-20T00:09:53.233Z,88
2024-01-20T00:11:49.044Z,88
2024-01-20T00:13:49.885Z,88
2024-01-20T00:15:49.328Z,88
2024-01-20T00:17:49.872Z,88
2024-01-20T00:19:55.545Z,88
2024-01-20T00:21:49.306Z,88
2024-01-20T00:23:49.434Z,88
2024-01-20T00:25:49.446Z,88
2024-01-20T00:27:49.452Z,88
2024-01-20T00:29:50.301Z,88
2024-01-20T00:31:49.527Z,88
2024-01-20T00:33:52.043Z,88
2024-01-20T00:35:49.404Z,88
2024-01-20T00:37:49.337Z,88
2024-01-20T00:39:48.870Z,88
2024-01-20T00:41:48.851Z,88
2024-01-20T00:43:49.177Z,88
2024-01-20T00:45:48.868Z,88
2024-01-20T00:47:49.320Z,88
2024-01-20T00:49:49.315Z,88
2024-01-20T00:51:48.908Z,88
2024-01-20T00:53:48.926Z,88
2024-01-20T00:55:49.097Z,88
2024-01-20T00:57:48.859Z,88
2024-01-20T00:59:48.960Z,88
2024-01-20T01:01:49.190Z,90
2024-01-20T01:03:49.342Z,88
2024-01-20T01:05:49.323Z,88
2024-01-20T01:07:49.131Z,90
2024-01-20T01:09:48.831Z,88
2024-01-20T01:11:48.864Z,88
2024-01-20T01:13:48.988Z,88
2024-01-20T01:15:48.849Z,88
2024-01-20T01:17:49.283Z,86
2024-01-20T01:19:49.311Z,86
2024-01-20T01:21:48.873Z,86
2024-01-20T01:23:49.339Z,86
2024-01-20T01:25:49.032Z,88
2024-01-20T01:27:48.842Z,86
2024-01-20T01:29:49.302Z,86
2024-01-20T01:31:49.118Z,86
2024-01-20T01:33:49.191Z,86
2024-01-20T01:35:49.011Z,86
2024-01-20T01:37:49.127Z,86
2024-01-20T01:39:48.838Z,86
2024-01-20T01:41:48.854Z,86
2024-01-20T01:43:49.163Z,86
2024-01-20T01:45:48.818Z,86
2024-01-20T01:47:49.339Z,86
2024-01-20T01:49:49.423Z,86
2024-01-20T01:51:49.019Z,86
2024-01-20T01:53:48.915Z,86
2024-01-20T01:55:48.831Z,86
2024-01-20T01:57:48.848Z,86
2024-01-20T01:59:48.855Z,86
2024-01-20T02:01:48.814Z,86
2024-01-20T02:03:49.398Z,86
2024-01-20T02:05:48.862Z,86
2024-01-20T02:07:49.141Z,86
2024-01-20T02:09:48.817Z,86
2024-01-20T02:11:48.801Z,86
2024-01-20T02:13:49.500Z,86
2024-01-20T02:15:49.109Z,86
2024-01-20T02:17:49.524Z,86
2024-01-20T02:19:49.104Z,86
2024-01-20T02:21:48.866Z,86
2024-01-20T02:23:48.991Z,86
2024-01-20T02:25:48.829Z,88
2024-01-20T02:27:48.824Z,86
2024-01-20T02:29:48.902Z,86
2024-01-20T02:31:48.881Z,86
2024-01-20T02:33:49.530Z,86
2024-01-20T02:35:49.028Z,86
2024-01-20T02:37:48.954Z,86
2024-01-20T02:39:49.040Z,86
2024-01-20T02:41:48.979Z,90
2024-01-20T02:43:48.796Z,86
2024-01-20T02:45:48.834Z,86
2024-01-20T02:47:49.350Z,86
2024-01-20T02:49:49.562Z,86
2024-01-20T02:51:48.806Z,88
2024-01-20T02:53:48.814Z,86
2024-01-20T02:55:49.057Z,86
2024-01-20T02:57:48.793Z,86
2024-01-20T02:59:49.009Z,86
2024-01-20T03:01:48.806Z,86
2024-01-20T03:03:49.539Z,86
2024-01-20T03:05:49.873Z,86
2024-01-20T03:07:48.814Z,86
2024-01-20T03:09:49.578Z,86
2024-01-20T03:11:48.907Z,86
2024-01-20T03:13:49.701Z,86
2024-01-20T03:15:48.822Z,86
2024-01-20T03:17:49.104Z,86
2024-01-20T03:19:49.363Z,86
2024-01-20T03:21:48.807Z,86
2024-01-20T03:23:48.860Z,86
2024-01-20T03:25:48.804Z,86
2024-01-20T03:27:49.120Z,86
2024-01-20T03:29:48.976Z,86
2024-01-20T03:31:48.911Z,86
2024-01-20T03:33:49.397Z,86
2024-01-20T03:35:48.811Z,86
2024-01-20T03:37:48.815Z,88
2024-01-20T03:39:48.800Z,86
2024-01-20T03:41:48.816Z,86
2024-01-20T03:43:49.006Z,86
2024-01-20T03:45:48.793Z,86
2024-01-20T03:47:49.117Z,86
2024-01-20T03:49:49.598Z,86
2024-01-20T03:51:48.802Z,86
2024-01-20T03:53:48.795Z,86
2024-01-20T03:55:48.938Z,86
2024-01-20T03:57:48.788Z,86
2024-01-20T03:59:49.034Z,88
2024-01-20T04:01:48.828Z,86
2024-01-20T04:03:49.407Z,86
2024-01-20T04:05:48.945Z,86
2024-01-20T04:07:48.785Z,86
2024-01-20T04:09:48.799Z,86
2024-01-20T04:11:48.827Z,86
2024-01-20T04:13:48.775Z,86
2024-01-20T04:15:49.018Z,86
2024-01-20T04:17:49.482Z,86
2024-01-20T04:19:48.818Z,86
2024-01-20T04:21:48.797Z,86
2024-01-20T04:23:48.813Z,86
2024-01-20T04:25:48.795Z,86
2024-01-20T04:27:48.805Z,86
2024-01-20T04:29:48.790Z,86
2024-01-20T04:31:49.029Z,86
2024-01-20T04:33:49.474Z,86
2024-01-20T04:35:48.881Z,86
2024-01-20T04:37:48.879Z,86
2024-01-20T04:39:48.796Z,86
2024-01-20T04:41:48.908Z,86
2024-01-20T04:43:48.810Z,86
2024-01-20T04:45:48.832Z,86
2024-01-20T04:47:49.170Z,86
2024-01-20T04:49:49.151Z,86
2024-01-20T04:51:48.946Z,86
2024-01-20T04:53:48.768Z,86
2024-01-20T04:55:48.813Z,86
2024-01-20T04:57:49.137Z,86
2024-01-20T04:59:48.824Z,86
2024-01-20T05:01:49.014Z,88
2024-01-20T05:03:49.670Z,86
2024-01-20T05:05:49.143Z,86
2024-01-20T05:07:48.783Z,86
2024-01-20T05:09:48.797Z,86
2024-01-20T05:11:48.874Z,86
2024-01-20T05:13:48.775Z,86
2024-01-20T05:15:49.005Z,86
2024-01-20T05:17:49.405Z,86
2024-01-20T05:19:50.283Z,86
2024-01-20T05:21:48.797Z,86
2024-01-20T05:23:48.764Z,86
2024-01-20T05:25:48.906Z,86
2024-01-20T05:27:48.761Z,88
2024-01-20T05:29:48.797Z,86
2024-01-20T05:31:48.922Z,84
2024-01-20T05:33:49.505Z,86
2024-01-20T05:35:48.958Z,86
2024-01-20T05:37:48.895Z,86
2024-01-20T05:39:49.214Z,86
2024-01-20T05:41:48.762Z,86
2024-01-20T05:43:48.904Z,86
2024-01-20T05:45:48.787Z,86
2024-01-20T05:47:49.062Z,86
2024-01-20T05:49:49.172Z,86
2024-01-20T05:51:48.972Z,86
2024-01-20T05:53:48.772Z,86
2024-01-20T05:55:48.782Z,86
2024-01-20T05:57:48.911Z,86
2024-01-20T05:59:48.743Z,86
2024-01-20T06:01:48.784Z,86
2024-01-20T06:03:49.364Z,88
2024-01-20T06:05:48.757Z,86
2024-01-20T06:07:49.195Z,88
2024-01-20T06:09:48.797Z,86
2024-01-20T06:11:48.894Z,86
2024-01-20T06:13:48.907Z,86
2024-01-20T06:15:48.794Z,86
2024-01-20T06:17:49.241Z,86
2024-01-20T06:19:48.972Z,86
2024-01-20T06:21:48.771Z,86
2024-01-20T06:23:49.107Z,86
2024-01-20T06:25:48.901Z,86
2024-01-20T06:27:48.797Z,86
2024-01-20T06:29:48.779Z,86
2024-01-20T06:31:48.764Z,86
2024-01-20T06:33:49.822Z,86
2024-01-20T06:35:48.753Z,86
2024-01-20T06:37:48.765Z,86
2024-01-20T06:39:48.864Z,86
2024-01-20T06:41:48.791Z,86
2024-01-20T06:43:48.928Z,86
2024-01-20T06:45:49.062Z,86
2024-01-20T06:47:49.167Z,86
2024-01-20T06:49:49.469Z,86
2024-01-20T06:51:48.767Z,86
2024-01-20T06:53:48.735Z,86
2024-01-20T06:55:48.845Z,86
2024-01-20T06:57:48.801Z,88
2024-01-20T06:59:49.039Z,86
2024-01-20T07:01:48.860Z,86
2024-01-20T07:03:49.286Z,86
2024-01-20T07:05:49.182Z,86
2024-01-20T07:07:48.756Z,86
2024-01-20T07:09:48.805Z,86
2024-01-20T07:11:48.957Z,88
2024-01-20T07:13:48.838Z,86
2024-01-20T07:15:48.947Z,86
2024-01-20T07:23:48.916Z,22
2024-01-20T07:25:48.910Z,20
2024-01-20T07:27:52.313Z,22
2024-01-20T07:29:52.472Z,22
2024-01-20T07:31:48.816Z,24
2024-01-20T07:33:49.326Z,22
2024-01-20T07:35:48.824Z,22
2024-01-20T07:47:51.811Z,88
2024-01-20T07:49:49.273Z,86
2024-01-20T07:51:48.766Z,86
2024-01-20T07:53:48.770Z,86
2024-01-20T07:55:48.737Z,86
2024-01-20T07:57:48.871Z,86
2024-01-20T07:59:48.737Z,88
2024-01-20T08:01:48.743Z,86
2024-01-20T08:03:49.355Z,82
2024-01-20T08:05:49.047Z,82
2024-01-20T08:07:48.738Z,82
2024-01-20T08:09:48.850Z,84
2024-01-20T08:11:49.278Z,84
2024-01-20T08:13:48.793Z,86
2024-01-20T08:15:49.118Z,84
2024-01-20T08:17:49.016Z,84
2024-01-20T08:19:49.373Z,84
2024-01-20T08:21:48.828Z,84
2024-01-20T08:23:48.739Z,84
2024-01-20T08:25:48.727Z,84
2024-01-20T08:27:48.720Z,84
2024-01-20T08:29:48.713Z,84
2024-01-20T08:31:49.061Z,82
2024-01-20T08:33:49.788Z,84
2024-01-20T08:35:49.055Z,84
2024-01-20T08:37:48.727Z,84
2024-01-20T08:39:48.703Z,84
2024-01-20T08:41:48.772Z,84
2024-01-20T08:43:48.701Z,84
2024-01-20T08:45:48.766Z,84
2024-01-20T08:47:48.779Z,84
2024-01-20T08:49:48.823Z,84
2024-01-20T08:51:49.068Z,84
2024-01-20T08:53:48.848Z,84
2024-01-20T08:55:48.791Z,84
2024-01-20T08:57:48.712Z,84
2024-01-20T08:59:48.729Z,84
2024-01-20T09:01:48.720Z,80
2024-01-20T09:03:49.508Z,80
2024-01-20T09:05:49.375Z,82
2024-01-20T09:07:48.876Z,80
2024-01-20T09:09:48.728Z,82
2024-01-20T09:11:48.713Z,82
2024-01-20T09:13:48.718Z,82
2024-01-20T09:15:49.293Z,80
2024-01-20T09:17:48.831Z,82
2024-01-20T09:19:49.746Z,82
2024-01-20T09:21:48.700Z,82
2024-01-20T09:23:48.808Z,82
2024-01-20T09:25:48.761Z,82
2024-01-20T09:27:48.772Z,82
2024-01-20T09:29:48.699Z,82
2024-01-20T09:31:48.708Z,82
2024-01-20T09:33:49.624Z,82
2024-01-20T09:35:48.680Z,82
2024-01-20T09:37:48.694Z,82
2024-01-20T09:39:48.867Z,82
2024-01-20T09:41:49.174Z,82
2024-01-20T09:43:48.690Z,82
2024-01-20T09:45:49.071Z,84
2024-01-20T09:47:49.214Z,82
2024-01-20T09:49:49.273Z,82
2024-01-20T09:51:48.700Z,82
2024-01-20T09:53:48.791Z,82
2024-01-20T09:55:49.081Z,82
2024-01-20T09:57:48.694Z,82
2024-01-20T09:59:48.710Z,82
2024-01-20T10:01:48.719Z,82
2024-01-20T10:03:49.288Z,82
2024-01-20T10:05:49.113Z,82
2024-01-20T10:07:48.660Z,82
2024-01-20T10:09:48.681Z,82
2024-01-20T10:11:49.084Z,82
2024-01-20T10:13:48.884Z,82
2024-01-20T10:15:49.047Z,82
2024-01-20T10:17:49.120Z,82
2024-01-20T10:19:49.024Z,82
2024-01-20T10:21:48.982Z,82
2024-01-20T10:23:48.708Z,82
2024-01-20T10:25:48.656Z,82
2024-01-20T10:27:48.992Z,82
2024-01-20T10:29:48.743Z,82
2024-01-20T10:31:48.742Z,82
2024-01-20T10:33:53.809Z,82
2024-01-20T10:35:48.678Z,82
2024-01-20T10:37:48.679Z,82
2024-01-20T10:39:48.690Z,82
2024-01-20T10:41:48.674Z,82
2024-01-20T10:43:49.050Z,82
2024-01-20T10:45:48.768Z,82
2024-01-20T10:47:49.190Z,82
2024-01-20T10:49:49.464Z,80
2024-01-20T10:51:49.694Z,84
2024-01-20T10:53:49.119Z,80
2024-01-20T10:55:48.716Z,84
2024-01-20T10:57:48.674Z,84
2024-01-20T10:59:48.979Z,84
2024-01-20T11:01:48.728Z,84
2024-01-20T11:03:49.280Z,84
2024-01-20T11:05:49.449Z,84
2024-01-20T11:07:48.780Z,84
2024-01-20T11:09:48.730Z,84
2024-01-20T11:11:48.715Z,84
2024-01-20T11:13:48.856Z,84
2024-01-20T11:15:49.066Z,86
2024-01-20T11:17:48.957Z,84
2024-01-20T11:19:49.091Z,84
2024-01-20T11:21:49.096Z,84
2024-01-20T11:23:48.791Z,84
2024-01-20T11:25:48.706Z,84
2024-01-20T11:27:48.736Z,84
2024-01-20T11:29:48.702Z,84
2024-01-20T11:31:48.997Z,84
2024-01-20T11:33:49.977Z,84
2024-01-20T11:35:48.728Z,84
2024-01-20T11:37:48.670Z,84
2024-01-20T11:39:48.909Z,84
2024-01-20T11:41:48.692Z,84
2024-01-20T11:43:48.806Z,84
2024-01-20T11:45:48.889Z,84
2024-01-20T11:47:49.103Z,84
2024-01-20T11:49:49.235Z,84
2024-01-20T11:51:49.230Z,84
2024-01-20T11:53:48.690Z,84
2024-01-20T11:55:48.679Z,84
2024-01-20T11:57:49.054Z,84
2024-01-20T11:59:48.716Z,84
2024-01-20T12:01:49.220Z,84
2024-01-20T12:03:49.352Z,84
2024-01-20T12:05:49.226Z,84
2024-01-20T12:07:48.732Z,84
2024-01-20T12:09:48.921Z,84
2024-01-20T12:11:49.034Z,84
2024-01-20T12:13:48.799Z,84
2024-01-20T12:15:49.217Z,84
2024-01-20T12:17:49.432Z,84
2024-01-20T12:19:49.473Z,84
2024-01-20T12:21:48.701Z,84
2024-01-20T12:23:48.690Z,84
2024-01-20T12:25:48.725Z,84
2024-01-20T12:27:48.664Z,84
2024-01-20T12:29:48.671Z,84
2024-01-20T12:31:48.887Z,84
2024-01-20T12:33:49.631Z,84
2024-01-20T12:35:48.916Z,84
2024-01-20T12:37:48.660Z,84
2024-01-20T12:39:48.703Z,84
2024-01-20T12:41:48.693Z,84
2024-01-20T12:43:48.697Z,84
2024-01-20T12:45:48.971Z,84
2024-01-20T12:47:49.106Z,84
2024-01-20T12:49:49.257Z,84
2024-01-20T12:51:49.132Z,84
2024-01-20T12:53:48.713Z,84
2024-01-20T12:55:48.719Z,84
2024-01-20T12:57:49.308Z,84
2024-01-20T12:59:48.669Z,84
2024-01-20T13:01:49.204Z,84
2024-01-20T13:03:49.112Z,84
2024-01-20T13:05:49.032Z,84
2024-01-20T13:07:48.930Z,84
2024-01-20T13:09:48.870Z,84
2024-01-20T13:11:48.748Z,84
2024-01-20T13:13:49.068Z,84
2024-01-20T13:15:49.318Z,84
2024-01-20T13:17:49.122Z,84
2024-01-20T13:21:49.038Z,84
2024-01-20T13:23:48.796Z,84
2024-01-20T13:25:48.792Z,84
2024-01-20T13:27:48.987Z,86
2024-01-20T13:29:48.651Z,82
2024-01-20T13:31:48.672Z,84
2024-01-20T13:33:49.374Z,84
2024-01-20T13:35:48.798Z,86
2024-01-20T13:37:48.653Z,86
2024-01-20T13:39:49.220Z,86
2024-01-20T13:41:48.644Z,86
2024-01-20T13:43:48.705Z,86
2024-01-20T13:45:49.208Z,86
2024-01-20T13:47:48.916Z,86
2024-01-20T13:49:49.596Z,86
2024-01-20T13:51:48.930Z,86
2024-01-20T13:53:48.986Z,86
2024-01-20T13:55:48.897Z,84
2024-01-20T13:57:48.929Z,84
2024-01-20T13:59:48.683Z,86
2024-01-20T14:01:49.004Z,86
2024-01-20T14:03:49.506Z,108
2024-01-20T14:05:48.992Z,108
2024-01-20T14:07:48.800Z,108
2024-01-20T14:09:49.371Z,108
2024-01-20T14:11:48.957Z,108
2024-01-20T14:13:48.766Z,108
2024-01-20T14:15:49.081Z,108
2024-01-20T14:17:49.310Z,108
2024-01-20T14:19:49.675Z,108
2024-01-20T14:21:48.721Z,108
2024-01-20T14:23:48.747Z,108
2024-01-20T14:25:48.730Z,108
2024-01-20T14:27:48.966Z,108
2024-01-20T14:29:48.683Z,108
2024-01-20T14:31:48.822Z,108
2024-01-20T14:33:49.348Z,108
2024-01-20T14:35:48.639Z,108
2024-01-20T14:37:48.701Z,114
2024-01-20T14:39:49.038Z,108
2024-01-20T14:41:48.741Z,106
2024-01-20T14:43:48.824Z,108
2024-01-20T14:45:48.933Z,82
2024-01-20T14:47:49.002Z,78
2024-01-20T14:49:49.508Z,82
2024-01-20T14:51:49.224Z,84
2024-01-20T14:53:48.691Z,84
2024-01-20T14:55:48.663Z,84
2024-01-20T14:57:49.049Z,84
2024-01-20T15:19:51.708Z,88
2024-01-20T15:21:48.991Z,88
2024-01-20T15:23:48.703Z,88
2024-01-20T15:25:55.385Z,88
2024-01-20T15:27:49.595Z,86
2024-01-20T15:29:48.643Z,88
2024-01-20T15:31:48.691Z,88
2024-01-20T15:33:49.409Z,88
2024-01-20T15:35:48.932Z,86
2024-01-20T15:37:48.709Z,86
2024-01-20T15:39:49.354Z,86
2024-01-20T15:41:48.626Z,86
2024-01-20T15:43:49.038Z,86
2024-01-20T15:45:48.993Z,86
2024-01-20T15:47:48.819Z,86
2024-01-20T15:49:49.837Z,86
2024-01-20T15:51:48.991Z,86
2024-01-20T15:53:48.676Z,86
2024-01-20T15:55:48.659Z,88
2024-01-20T15:57:48.832Z,88
2024-01-20T15:59:48.626Z,86
2024-01-20T16:01:48.797Z,88
2024-01-20T16:03:49.577Z,88
2024-01-20T16:05:48.803Z,88
2024-01-20T16:07:48.818Z,88
2024-01-20T16:09:49.186Z,88
2024-01-20T16:11:48.821Z,88
2024-01-20T16:13:48.618Z,86
2024-01-20T16:15:49.386Z,88
2024-01-20T16:19:49.120Z,88
2024-01-20T16:21:49.009Z,88
2024-01-20T16:23:49.097Z,88
2024-01-20T16:25:48.615Z,88
2024-01-20T16:27:49.389Z,86
2024-01-20T16:29:49.098Z,88
2024-01-20T16:31:48.677Z,88
2024-01-20T16:33:49.325Z,86
2024-01-20T16:35:48.615Z,88
2024-01-20T16:37:48.590Z,88
2024-01-20T16:39:49.290Z,88
2024-01-20T16:41:49.296Z,88
2024-01-20T16:43:48.738Z,88
2024-01-20T16:45:49.131Z,88
2024-01-20T16:47:52.685Z,88
2024-01-20T16:49:49.289Z,88
2024-01-20T16:51:49.231Z,88
2024-01-20T16:53:48.602Z,86
2024-01-20T16:55:48.862Z,88
2024-01-20T16:57:48.742Z,88
2024-01-20T16:59:48.590Z,88
2024-01-20T17:01:48.632Z,88
2024-01-20T17:03:49.373Z,88
2024-01-20T17:05:48.597Z,88
2024-01-20T17:07:48.605Z,88
2024-01-20T17:09:48.600Z,88
2024-01-20T17:11:49.381Z,88
2024-01-20T17:13:48.604Z,88
2024-01-20T17:15:48.695Z,88
2024-01-20T17:17:48.892Z,88
2024-01-20T17:19:48.821Z,88
2024-01-20T17:21:48.915Z,88
2024-01-20T17:23:48.601Z,88
2024-01-20T17:25:48.612Z,88
2024-01-20T17:27:49.109Z,88
2024-01-20T17:29:48.601Z,88
2024-01-20T17:31:48.628Z,88
2024-01-20T17:33:53.922Z,86
2024-01-20T17:35:48.598Z,88
2024-01-20T17:37:48.611Z,86
2024-01-20T17:39:49.176Z,88
2024-01-20T17:41:48.749Z,86
2024-01-20T17:43:49.115Z,86
2024-01-20T17:45:49.365Z,86
2024-01-20T17:47:49.471Z,86
2024-01-20T17:49:48.694Z,86
2024-01-20T17:51:49.298Z,86
2024-01-20T17:53:48.616Z,88
2024-01-20T17:55:48.579Z,86
2024-01-20T17:57:48.996Z,86
2024-01-20T17:59:48.893Z,86
2024-01-20T18:01:49.120Z,88
2024-01-20T18:03:49.282Z,86
2024-01-20T18:05:49.502Z,86
2024-01-20T18:07:48.580Z,88
2024-01-20T18:09:48.598Z,88
2024-01-20T18:11:48.626Z,88
2024-01-20T18:13:48.694Z,88
2024-01-20T18:15:49.165Z,88
2024-01-20T18:17:49.097Z,86
2024-01-20T18:19:48.850Z,86
2024-01-20T18:21:48.975Z,86
2024-01-20T18:23:48.717Z,86
2024-01-20T18:25:48.838Z,86
2024-01-20T18:27:48.948Z,86
2024-01-20T18:29:48.697Z,86
2024-01-20T18:31:49.039Z,86
2024-01-20T18:33:49.173Z,86
2024-01-20T18:35:49.152Z,86
2024-01-20T18:37:48.729Z,86
2024-01-20T18:39:49.063Z,86
2024-01-20T18:41:48.660Z,86
2024-01-20T18:43:48.604Z,86
2024-01-20T18:45:48.744Z,84
2024-01-20T18:47:49.363Z,86
2024-01-20T18:49:49.036Z,86
2024-01-20T18:51:48.681Z,86
2024-01-20T18:53:48.693Z,86
2024-01-20T18:55:48.609Z,86
2024-01-20T18:57:48.922Z,88
2024-01-20T18:59:48.689Z,86
2024-01-20T19:01:48.683Z,86
2024-01-20T19:03:49.684Z,88
2024-01-20T19:05:48.722Z,88
2024-01-20T19:07:48.575Z,88
2024-01-20T19:09:48.622Z,88
2024-01-20T19:11:49.276Z,88
2024-01-20T19:13:48.596Z,88
2024-01-20T19:15:49.044Z,88
2024-01-20T19:17:49.066Z,88
2024-01-20T19:19:50.471Z,88
2024-01-20T19:21:49.095Z,88
2024-01-20T19:23:48.605Z,88
2024-01-20T19:25:48.571Z,88
2024-01-20T19:27:53.569Z,86
2024-01-20T19:29:48.610Z,88
2024-01-20T19:31:48.818Z,86
2024-01-20T19:33:49.493Z,88
2024-01-20T19:35:48.952Z,88
2024-01-20T19:37:48.596Z,88
2024-01-20T19:39:49.179Z,88
2024-01-20T19:41:48.984Z,88
2024-01-20T19:43:48.609Z,88
2024-01-20T19:45:48.810Z,88
2024-01-20T19:47:48.829Z,88
2024-01-20T19:49:48.567Z,88
2024-01-20T19:51:48.994Z,88
2024-01-20T19:53:48.849Z,88
2024-01-20T19:55:48.583Z,88
2024-01-20T19:57:49.151Z,88
2024-01-20T19:59:48.796Z,88
2024-01-20T20:01:48.830Z,92
2024-01-20T20:03:49.320Z,92
2024-01-20T20:05:48.804Z,88
2024-01-20T20:07:49.086Z,88
2024-01-20T20:09:48.919Z,92
2024-01-20T20:11:48.704Z,88
2024-01-20T20:13:48.569Z,88
2024-01-20T20:15:48.917Z,88
2024-01-20T20:17:49.658Z,88
2024-01-20T20:19:49.195Z,92
2024-01-20T20:21:48.936Z,88
2024-01-20T20:23:48.724Z,92
2024-01-20T20:25:48.568Z,88
2024-01-20T20:27:49.304Z,88
2024-01-20T20:29:49.021Z,88
2024-01-20T20:31:48.620Z,88
2024-01-20T20:33:49.333Z,88
2024-01-20T20:35:48.610Z,88
2024-01-20T20:37:48.684Z,88
2024-01-20T20:39:49.108Z,88
2024-01-20T20:41:48.598Z,88
2024-01-20T20:43:48.573Z,88
2024-01-20T20:45:49.503Z,88
2024-01-20T20:47:48.895Z,88
2024-01-20T20:49:49.600Z,88
2024-01-20T20:51:49.432Z,88
2024-01-20T20:53:48.592Z,88
2024-01-20T20:55:48.655Z,88
2024-01-20T20:57:49.188Z,88
2024-01-20T20:59:48.578Z,92
2024-01-20T21:01:48.918Z,88
2024-01-20T21:03:49.317Z,88
2024-01-20T21:05:48.999Z,88
2024-01-20T21:07:48.692Z,88
2024-01-20T21:09:48.914Z,88
2024-01-20T21:11:48.820Z,88
2024-01-20T21:13:48.559Z,88
2024-01-20T21:15:49.177Z,92
2024-01-20T21:17:49.198Z,88
2024-01-20T21:19:50.464Z,88
2024-01-20T21:21:49.168Z,92
2024-01-20T21:23:49.143Z,88
2024-01-20T21:25:48.576Z,88
2024-01-20T21:27:48.952Z,88
2024-01-20T21:29:48.534Z,88
2024-01-20T21:31:48.777Z,88
2024-01-20T21:33:49.431Z,88
2024-01-20T21:35:48.654Z,86
2024-01-20T21:37:48.562Z,88
2024-01-20T21:39:48.806Z,86
2024-01-20T21:41:48.561Z,86
2024-01-20T21:43:48.791Z,86
2024-01-20T21:45:49.129Z,88
2024-01-20T21:47:49.202Z,86
2024-01-20T21:49:48.519Z,86
2024-01-20T21:51:48.792Z,86
2024-01-20T21:53:48.546Z,88
2024-01-20T21:55:48.520Z,86
2024-01-20T21:57:48.857Z,86
2024-01-20T21:59:48.792Z,86
2024-01-20T22:01:48.527Z,86
2024-01-20T22:03:49.085Z,86
2024-01-20T22:05:48.684Z,86
2024-01-20T22:07:48.539Z,86
2024-01-20T22:09:48.764Z,86
2024-01-20T22:11:48.562Z,86
2024-01-20T22:13:48.542Z,88
2024-01-20T22:15:49.307Z,86
2024-01-20T22:17:48.710Z,86
2024-01-20T22:19:49.432Z,86
2024-01-20T22:21:48.995Z,86
2024-01-20T22:23:48.521Z,86
2024-01-20T22:25:48.702Z,86
2024-01-20T22:27:49.053Z,86
2024-01-20T22:29:48.559Z,86
2024-01-20T22:31:48.879Z,86
2024-01-20T22:33:49.120Z,86
2024-01-20T22:35:48.569Z,86
2024-01-20T22:37:48.536Z,86
2024-01-20T22:39:49.022Z,86
2024-01-20T22:41:48.580Z,86
2024-01-20T22:43:48.614Z,86
2024-01-20T22:45:48.815Z,86
2024-01-20T22:47:49.410Z,90
2024-01-20T22:49:49.480Z,90
2024-01-20T22:51:49.044Z,88
2024-01-20T22:53:48.534Z,88
2024-01-20T22:55:49.014Z,88
2024-01-20T22:57:49.381Z,86
2024-01-20T22:59:48.556Z,88
2024-01-20T23:01:49.002Z,88
2024-01-20T23:03:49.311Z,88
2024-01-20T23:05:48.922Z,86
2024-01-20T23:07:48.578Z,88
2024-01-20T23:09:48.940Z,86
2024-01-20T23:11:49.448Z,88
2024-01-20T23:13:48.527Z,86
2024-01-20T23:15:49.927Z,86
2024-01-20T23:17:48.662Z,86
2024-01-20T23:19:49.045Z,86
2024-01-20T23:21:49.079Z,88
2024-01-20T23:23:48.520Z,86
2024-01-20T23:25:48.527Z,88
2024-01-20T23:27:49.189Z,86
2024-01-20T23:29:48.581Z,88
2024-01-20T23:31:48.570Z,88
2024-01-20T23:33:49.448Z,88
2024-01-20T23:35:48.808Z,88
2024-01-20T23:37:48.504Z,86
2024-01-20T23:39:49.378Z,88
2024-01-20T23:41:48.520Z,88
2024-01-20T23:43:48.515Z,88
2024-01-20T23:45:48.946Z,88
2024-01-20T23:47:49.627Z,88
2024-01-20T23:49:48.503Z,86
2024-01-20T23:51:49.874Z,88
2024-01-20T23:53:48.522Z,86
2024-01-20T23:55:48.517Z,88
2024-01-20T23:57:48.751Z,86
2024-01-20T23:59:48.514Z,86
